Etusivu
METAR-TAF:

METAR-TAF

Lentoasemat :

Ely, Minnesota, Yhdysvallat

Leveyspiiri: 47-49N, Pituuspiiri: 091-50W, korkeus merenpinnasta: 443 m

Tämänhetkinen sää

Tämä raportti tehtiin 24 minuuttia sitten, kello 09.56 UTC
Tuuli 9 kn luoteesta puuskistuen 17 kn:hen
Lämpötila 2°C
Kosteus 80%
Ilmanpaine 1012 hPa
Näkyvyys: 16.1 km
Hajanaisia pilviä 2300 ft:n korkeudessa
Hajanaisia pilviä 2900 ft:n korkeudessa
Hajonneita pilviä 5500 ft:n korkeudessa

METAR: KELO 260956Z AUTO 32009G17KT 10SM SCT023 SCT029 BKN055 02/M01 A2988 RMK AO2

Aika: 05:20 (10:20 UTC)


TAF: puuttuu

Säähavainnot ja -ennusteet yli 4000 lentoasemalta (METAR- ja TAF-raportit).

Käytössä olevat sääasemat on merkitty karttaan keltaisilla ja punaisilla pisteillä.

Aseta hiiri pisteen päälle nähdäksesi sääaseman nimen.

Klikkaa sitten nähdäksesi säähavainnot ja -ennusteet.

Kartan vaihtaminen: klikkaa mustalla rastilla varustettuja vihreitä pisteitä, niin voit zoomata sisään; viivalla varustettua vihreää pistettä, niin voit zoomata ulos tai vihreitä nuolia, niin pääset viereisille kartoille.


METAR-TAF: